Airfield :
LOGIN :

Register | Disclaimer

   EN    FR    IT 

 










Legend :    VFR   Marginal VFR   IFR   Intensive IFR   Very Intensive IFR
Visi :
Ceiling :
>= 8 km
>= 3000ft
5 to 8 km
1000 to 3000 ft
1500m to 5 km
500 to 1000 ft
800 to 1500m
200 to 500 ft
< 800m
< 200 ft
Symbols :   Thunderstorms  Fog  Heavy snow  Heavy precipitations  Wind > 20 kt
SIGMETs :     Misc.  Thunderstorms  Icing  Turbulence  Mountain Waves  Volcanic Ashes







- Airport Elevation : 179 ft
- IATA code : HEL


EFHK - Helsinki Vantaa

CURRENT METAR :
  • 160720Z 02006KT 4000 -FZDZ -SG SCT005 OVC007 M06/M07 Q1033 BECMG SG

EXPIRED METARs :
  • 160650Z 02006KT 4000 -FZDZ BKN005 OVC008 M06/M07 Q1033 NOSIG
  • 160620Z 02005KT 4000 -FZDZ BKN005 M06/M07 Q1033 NOSIG
  • 160550Z 01004KT 340V050 4000 -FZDZ BKN004 M06/M07 Q1033 NOSIG
  • 160520Z 03006KT 4000 -FZDZ BKN004 OVC010 M06/M07 Q1033 NOSIG
  • 160450Z 03007KT 6000 -FZDZ FEW003 BKN005 M06/M07 Q1034 NOSIG

TAF TAF EFHK
Valid from the 16 at 06:00 until the 17 at 06:00 UTC


160537Z 1606/1706 05007KT 9999 BKN004
TEMPO 1606/1615 4000 -FZDZ SCT004 OVC007
BECMG 1615/1617 12010KT
BECMG 1700/1702 2000 -SN
No reported NOTAMs for that airfield.



MET'MAP, your aeronautical weather chart ! - Copyright ORBIFLY December 2007 - Disclaimer

ORBIFLY MET'MAP TEAM :

Programming & Development : Alexandra Zaïnal
Concept & Development : Baudouin d'Aumeries
Co-Development & Prog : Marc-Olivier Méhu
Technical & hardware support : Manuel Goepfert

Contact : metmap@orbifly.com




SOURCES & CREDITS :

   NOAA